createdAt,value
2023-10-09T00:02:13.576Z,5.03
2023-10-09T00:04:43.609Z,4.53
2023-10-09T00:07:11.693Z,3.38
2023-10-09T00:09:48.862Z,3.80
2023-10-09T00:12:24.361Z,4.05
2023-10-09T00:14:51.973Z,4.38
2023-10-09T00:17:22.593Z,2.72
2023-10-09T00:19:51.095Z,3.63
2023-10-09T00:22:27.663Z,3.78
2023-10-09T00:25:13.447Z,2.40
2023-10-09T00:27:47.425Z,2.15
2023-10-09T00:30:19.668Z,2.95
2023-10-09T00:33:07.489Z,1.97
2023-10-09T00:35:38.970Z,2.33
2023-10-09T00:38:21.233Z,3.17
2023-10-09T00:40:57.343Z,1.98
2023-10-09T00:43:30.984Z,3.22
2023-10-09T00:46:13.317Z,2.80
2023-10-09T00:48:43.022Z,3.50
2023-10-09T00:51:20.099Z,3.05
2023-10-09T00:53:52.429Z,2.45
2023-10-09T00:56:29.719Z,4.03
2023-10-09T00:59:07.871Z,2.92
2023-10-09T01:01:49.776Z,4.05
2023-10-09T01:04:18.791Z,2.33
2023-10-09T01:07:09.226Z,2.17
2023-10-09T01:09:39.654Z,2.58
2023-10-09T01:12:06.738Z,3.00
2023-10-09T01:14:42.375Z,2.70
2023-10-09T01:17:10.386Z,2.88
2023-10-09T01:19:37.882Z,4.68
2023-10-09T01:22:17.497Z,2.13
2023-10-09T01:24:44.981Z,1.83
2023-10-09T01:27:18.138Z,3.30
2023-10-09T01:29:47.349Z,2.08
2023-10-09T01:32:21.114Z,2.33
2023-10-09T01:34:51.600Z,3.22
2023-10-09T01:37:24.389Z,3.22
2023-10-09T01:40:21.233Z,2.05
2023-10-09T01:42:48.229Z,3.20
2023-10-09T01:45:21.472Z,2.90
2023-10-09T01:50:32.338Z,1.95
2023-10-09T01:53:02.992Z,2.28
2023-10-09T01:55:40.935Z,2.65
2023-10-09T01:58:23.870Z,2.75
2023-10-09T02:00:57.930Z,2.58
2023-10-09T02:03:25.833Z,1.92
2023-10-09T02:06:18.131Z,3.17
2023-10-09T02:08:50.878Z,2.88
2023-10-09T02:11:36.902Z,3.05
2023-10-09T02:14:20.241Z,1.63
2023-10-09T02:17:03.754Z,3.45
2023-10-09T02:19:38.916Z,2.17
2023-10-09T02:22:14.510Z,3.17
2023-10-09T02:24:52.681Z,3.03
2023-10-09T02:27:38.922Z,1.48
2023-10-09T02:30:21.074Z,2.28
2023-10-09T02:32:53.914Z,1.85
2023-10-09T02:35:29.760Z,1.55
2023-10-09T02:37:59.146Z,3.88
2023-10-09T02:40:33.857Z,3.75
2023-10-09T02:43:00.858Z,2.55
2023-10-09T02:45:33.963Z,1.55
2023-10-09T02:50:29.960Z,1.50
2023-10-09T02:53:02.150Z,2.42
2023-10-09T02:55:29.146Z,1.98
2023-10-09T02:58:12.167Z,1.90
2023-10-09T03:00:38.811Z,1.98
2023-10-09T03:03:09.081Z,1.23
2023-10-09T03:05:39.545Z,2.30
2023-10-09T03:08:06.378Z,2.30
2023-10-09T03:10:35.295Z,1.75
2023-10-09T03:13:04.339Z,2.20
2023-10-09T03:15:36.937Z,1.63
2023-10-09T03:18:06.049Z,1.45
2023-10-09T03:20:33.014Z,1.73
2023-10-09T03:23:02.513Z,1.88
2023-10-09T03:25:29.374Z,2.78
2023-10-09T03:27:59.965Z,3.70
2023-10-09T03:30:26.702Z,1.63
2023-10-09T03:32:55.314Z,2.22
2023-10-09T03:35:26.985Z,1.80
2023-10-09T03:37:58.530Z,2.70
2023-10-09T03:40:26.108Z,2.13
2023-10-09T03:42:53.904Z,1.85
2023-10-09T03:45:27.324Z,2.97
2023-10-09T03:48:12.550Z,3.40
2023-10-09T03:50:39.499Z,3.83
2023-10-09T03:53:12.532Z,2.78
2023-10-09T03:55:40.787Z,2.25
2023-10-09T03:58:08.583Z,1.67
2023-10-09T04:00:46.403Z,1.70
2023-10-09T04:03:15.635Z,3.33
2023-10-09T04:05:44.420Z,2.33
2023-10-09T04:08:21.284Z,3.85
2023-10-09T04:10:57.098Z,2.30
2023-10-09T04:13:33.723Z,2.35
2023-10-09T04:16:12.529Z,2.90
2023-10-09T04:18:40.964Z,2.92
2023-10-09T04:21:20.841Z,3.22
2023-10-09T04:24:14.515Z,4.60
2023-10-09T04:29:28.481Z,4.80
2023-10-09T04:32:01.736Z,3.95
2023-10-09T04:34:28.818Z,3.30
2023-10-09T04:37:02.179Z,3.47
2023-10-09T04:39:32.233Z,3.40
2023-10-09T04:42:18.116Z,4.20
2023-10-09T04:45:03.985Z,2.58
2023-10-09T04:47:50.589Z,3.38
2023-10-09T04:50:20.078Z,3.58
2023-10-09T04:52:53.162Z,1.95
2023-10-09T04:58:11.373Z,1.80
2023-10-09T05:00:58.264Z,2.15
2023-10-09T05:03:40.609Z,2.72
2023-10-09T05:06:42.807Z,2.30
2023-10-09T05:09:10.530Z,1.98
2023-10-09T05:11:55.262Z,2.45
2023-10-09T05:14:28.230Z,1.77
2023-10-09T05:16:56.152Z,2.00
2023-10-09T05:19:34.761Z,1.60
2023-10-09T05:22:08.881Z,0.77
2023-10-09T05:24:48.566Z,0.93
2023-10-09T05:27:25.733Z,1.08
2023-10-09T05:30:13.927Z,1.13
2023-10-09T05:32:49.580Z,1.33
2023-10-09T05:35:31.085Z,0.88
2023-10-09T05:38:05.608Z,0.70
2023-10-09T05:40:32.548Z,0.68
2023-10-09T05:43:00.611Z,0.73
2023-10-09T05:45:47.094Z,2.00
2023-10-09T05:48:13.868Z,3.00
2023-10-09T05:51:00.875Z,0.82
2023-10-09T05:53:47.519Z,0.95
2023-10-09T05:56:46.871Z,1.63
2023-10-09T05:59:31.918Z,2.15
2023-10-09T06:01:58.577Z,1.10
2023-10-09T06:04:44.372Z,0.77
2023-10-09T06:07:15.224Z,0.68
2023-10-09T06:09:51.472Z,0.70
2023-10-09T06:12:33.953Z,0.70
2023-10-09T06:15:32.956Z,1.50
2023-10-09T06:18:19.724Z,1.00
2023-10-09T06:21:04.791Z,0.98
2023-10-09T06:23:49.780Z,0.85
2023-10-09T06:26:25.981Z,0.77
2023-10-09T06:29:13.224Z,1.17
2023-10-09T06:31:58.865Z,1.27
2023-10-09T06:34:36.620Z,0.60
2023-10-09T06:37:29.226Z,1.40
2023-10-09T06:39:57.485Z,1.02
2023-10-09T06:42:40.039Z,1.48
2023-10-09T06:45:15.710Z,2.13
2023-10-09T06:47:43.109Z,1.42
2023-10-09T06:50:21.923Z,1.13
2023-10-09T06:52:58.574Z,0.90
2023-10-09T06:55:49.551Z,2.78
2023-10-09T06:58:29.420Z,1.10
2023-10-09T07:01:00.517Z,1.00
2023-10-09T07:03:31.303Z,1.33
2023-10-09T07:06:26.610Z,0.85
2023-10-09T07:09:06.399Z,1.77
2023-10-09T07:11:42.834Z,0.90
2023-10-09T07:14:32.910Z,1.10
2023-10-09T07:17:16.850Z,0.85
2023-10-09T07:19:45.159Z,0.63
2023-10-09T07:22:22.042Z,1.23
2023-10-09T07:24:59.315Z,0.70
2023-10-09T07:27:50.994Z,1.52
2023-10-09T07:30:31.802Z,0.93
2023-10-09T07:33:12.184Z,1.15
2023-10-09T07:35:55.375Z,1.73
2023-10-09T07:38:24.488Z,1.43
2023-10-09T07:41:07.743Z,0.85
2023-10-09T07:43:45.320Z,1.88
2023-10-09T07:46:31.641Z,0.90
2023-10-09T07:49:10.021Z,1.80
2023-10-09T07:51:45.398Z,1.27
2023-10-09T07:54:16.010Z,1.25
2023-10-09T07:56:47.540Z,1.95
2023-10-09T07:59:19.394Z,2.78
2023-10-09T08:01:54.165Z,2.08
2023-10-09T08:04:41.234Z,5.70
2023-10-09T08:08:06.485Z,1.75
2023-10-09T08:10:18.390Z,2.17
2023-10-09T08:12:48.501Z,2.63
2023-10-09T08:15:21.450Z,3.33
2023-10-09T08:17:55.963Z,4.15
2023-10-09T08:20:27.069Z,2.40
2023-10-09T08:22:57.184Z,1.75
2023-10-09T08:25:28.073Z,3.20
2023-10-09T08:28:33.427Z,3.25
2023-10-09T08:31:20.076Z,2.17
2023-10-09T08:36:32.500Z,2.50
2023-10-09T08:39:00.284Z,2.63
2023-10-09T08:41:31.420Z,2.00
2023-10-09T08:43:58.990Z,2.03
2023-10-09T08:46:30.619Z,2.85
2023-10-09T08:49:00.230Z,3.95
2023-10-09T08:51:28.543Z,1.80
2023-10-09T08:53:56.003Z,2.13
2023-10-09T08:56:23.966Z,2.45
2023-10-09T08:58:52.696Z,1.85
2023-10-09T09:01:23.032Z,0.70
2023-10-09T09:03:51.642Z,2.03
2023-10-09T09:06:21.363Z,2.40
2023-10-09T09:08:48.491Z,2.17
2023-10-09T09:11:18.091Z,0.70
2023-10-09T09:13:51.566Z,2.13
2023-10-09T09:16:31.941Z,2.15
2023-10-09T09:19:11.803Z,2.25
2023-10-09T09:22:13.668Z,1.52
2023-10-09T09:24:46.882Z,3.10
2023-10-09T09:27:19.886Z,3.25
2023-10-09T09:29:54.037Z,1.20
2023-10-09T09:32:37.333Z,1.10
2023-10-09T09:37:44.106Z,1.77
2023-10-09T09:40:35.288Z,2.85
2023-10-09T09:43:07.103Z,1.35
2023-10-09T09:45:37.360Z,2.35
2023-10-09T09:48:07.924Z,1.90
2023-10-09T09:50:38.255Z,2.92
2023-10-09T09:53:09.442Z,4.85
2023-10-09T09:55:43.422Z,1.27
2023-10-09T09:58:19.977Z,1.67
2023-10-09T10:00:53.899Z,2.13
2023-10-09T10:03:30.850Z,2.05
2023-10-09T10:05:59.273Z,1.27
2023-10-09T10:08:34.093Z,2.92
2023-10-09T10:11:06.798Z,1.17
2023-10-09T10:13:42.703Z,0.98
2023-10-09T10:16:20.392Z,2.83
2023-10-09T10:19:16.414Z,2.22
2023-10-09T10:21:43.510Z,2.88
2023-10-09T10:24:31.934Z,1.33
2023-10-09T10:27:27.425Z,0.60
2023-10-09T10:30:11.061Z,1.38
2023-10-09T10:32:53.049Z,0.93
2023-10-09T10:35:46.972Z,1.02
2023-10-09T10:38:47.166Z,1.08
2023-10-09T10:41:18.785Z,1.40
2023-10-09T10:43:55.488Z,1.23
2023-10-09T10:46:30.329Z,1.05
2023-10-09T10:49:16.469Z,0.88
2023-10-09T10:51:50.432Z,0.60
2023-10-09T10:54:46.828Z,0.60
2023-10-09T10:57:29.761Z,0.77
2023-10-09T11:00:13.426Z,1.38
2023-10-09T11:05:27.383Z,1.42
2023-10-09T11:07:58.858Z,1.98
2023-10-09T11:10:33.052Z,2.03
2023-10-09T11:13:11.649Z,1.42
2023-10-09T11:15:46.202Z,1.20
2023-10-09T11:18:26.167Z,0.68
2023-10-09T11:20:59.022Z,0.65
2023-10-09T11:23:37.322Z,1.10
2023-10-09T11:26:23.894Z,2.00
2023-10-09T11:29:16.638Z,1.48
2023-10-09T11:32:07.797Z,1.13
2023-10-09T11:34:37.570Z,1.42
2023-10-09T11:37:13.299Z,1.88
2023-10-09T11:39:54.939Z,1.48
2023-10-09T11:42:49.798Z,1.88
2023-10-09T11:45:31.123Z,0.60
2023-10-09T11:48:01.027Z,1.08
2023-10-09T11:51:10.473Z,0.90
2023-10-09T11:53:46.327Z,0.85
2023-10-09T11:56:18.068Z,0.85
2023-10-09T11:58:45.168Z,0.82
2023-10-09T12:01:19.093Z,1.27
2023-10-09T12:03:50.970Z,0.75
2023-10-09T12:06:23.959Z,0.60
2023-10-09T12:08:51.242Z,1.05
2023-10-09T12:11:26.042Z,1.65
2023-10-09T12:13:58.079Z,1.23
2023-10-09T12:16:29.895Z,1.58
2023-10-09T12:18:57.358Z,0.70
2023-10-09T12:21:24.891Z,1.55
2023-10-09T12:23:51.616Z,1.65
2023-10-09T12:26:18.302Z,1.48
2023-10-09T12:28:47.694Z,1.15
2023-10-09T12:31:21.324Z,1.00
2023-10-09T12:33:48.906Z,1.73
2023-10-09T12:36:21.189Z,0.93
2023-10-09T12:38:54.985Z,1.13
2023-10-09T12:41:34.786Z,0.52
2023-10-09T12:44:02.574Z,1.15
2023-10-09T12:46:29.540Z,1.17
2023-10-09T12:48:56.567Z,0.98
2023-10-09T12:51:31.309Z,2.30
2023-10-09T12:53:58.796Z,1.38
2023-10-09T12:56:33.995Z,2.13
2023-10-09T12:59:02.262Z,2.03
2023-10-09T13:01:44.134Z,2.75
2023-10-09T13:04:18.827Z,3.45
2023-10-09T13:06:46.980Z,2.05
2023-10-09T13:09:43.936Z,0.82
2023-10-09T13:12:19.606Z,1.20
2023-10-09T13:14:48.595Z,2.45
2023-10-09T13:17:15.360Z,3.08
2023-10-09T13:19:42.204Z,2.05
2023-10-09T13:22:14.434Z,2.40
2023-10-09T13:24:42.834Z,2.85
2023-10-09T13:27:11.142Z,2.30
2023-10-09T13:29:41.423Z,1.33
2023-10-09T13:32:15.974Z,2.50
2023-10-09T13:34:46.973Z,3.08
2023-10-09T13:37:14.712Z,3.72
2023-10-09T13:39:53.457Z,3.55
2023-10-09T13:42:20.567Z,6.13
2023-10-09T13:44:50.094Z,5.38
2023-10-09T13:47:24.501Z,3.70
2023-10-09T13:49:52.222Z,4.80
2023-10-09T13:52:23.304Z,4.32
2023-10-09T13:54:50.970Z,4.43
2023-10-09T13:57:17.938Z,3.75
2023-10-09T13:59:53.722Z,3.65
2023-10-09T14:02:22.622Z,2.35
2023-10-09T14:04:49.837Z,2.47
2023-10-09T14:07:21.825Z,3.60
2023-10-09T14:10:08.244Z,5.10
2023-10-09T14:12:35.733Z,3.28
2023-10-09T14:15:04.961Z,4.80
2023-10-09T14:17:31.778Z,2.65
2023-10-09T14:20:17.513Z,4.97
2023-10-09T14:22:46.595Z,2.95
2023-10-09T14:25:16.765Z,5.82
2023-10-09T14:27:43.570Z,2.45
2023-10-09T14:30:14.153Z,2.28
2023-10-09T14:32:52.810Z,3.65
2023-10-09T14:35:22.902Z,2.55
2023-10-09T14:37:49.818Z,5.82
2023-10-09T14:40:22.441Z,3.80
2023-10-09T14:42:56.813Z,3.03
2023-10-09T14:45:28.185Z,4.70
2023-10-09T14:47:55.813Z,3.97
2023-10-09T14:50:23.638Z,2.72
2023-10-09T14:52:52.033Z,1.88
2023-10-09T14:55:22.494Z,2.15
2023-10-09T14:57:53.748Z,3.65
2023-10-09T15:00:24.600Z,4.72
2023-10-09T15:02:52.207Z,3.20
2023-10-09T15:05:19.236Z,3.42
2023-10-09T15:07:47.654Z,4.38
2023-10-09T15:10:17.126Z,3.08
2023-10-09T15:12:49.937Z,4.65
2023-10-09T15:15:17.118Z,3.50
2023-10-09T15:17:49.779Z,8.10
2023-10-09T15:20:18.096Z,3.17
2023-10-09T15:22:47.290Z,4.32
2023-10-09T15:25:16.095Z,2.90
2023-10-09T15:27:43.901Z,4.32
2023-10-09T15:30:15.203Z,3.85
2023-10-09T15:32:42.792Z,4.70
2023-10-09T15:35:14.654Z,2.95
2023-10-09T15:37:42.844Z,6.23
2023-10-09T15:40:16.323Z,2.10
2023-10-09T15:42:44.447Z,1.48
2023-10-09T15:45:13.380Z,2.25
2023-10-09T15:47:41.055Z,2.55
2023-10-09T15:50:13.119Z,1.80
2023-10-09T15:52:40.592Z,2.35
2023-10-09T15:55:14.714Z,2.40
2023-10-09T15:57:42.849Z,3.28
2023-10-09T16:00:19.215Z,0.60
2023-10-09T16:02:48.578Z,5.13
2023-10-09T16:05:17.833Z,2.53
2023-10-09T16:07:45.078Z,5.45
2023-10-09T16:10:12.446Z,3.88
2023-10-09T16:12:42.078Z,3.35
2023-10-09T16:15:09.939Z,3.42
2023-10-09T16:17:38.682Z,6.10
2023-10-09T16:20:14.689Z,2.22
2023-10-09T16:22:41.882Z,3.40
2023-10-09T16:25:10.769Z,5.50
2023-10-09T16:27:37.500Z,2.88
2023-10-09T16:30:07.006Z,1.58
2023-10-09T16:32:34.169Z,3.08
2023-10-09T16:35:00.982Z,4.75
2023-10-09T16:37:27.675Z,2.88
2023-10-09T16:39:59.422Z,3.47
2023-10-09T16:42:26.152Z,6.85
2023-10-09T16:44:52.828Z,5.65
2023-10-09T16:47:19.664Z,4.70
2023-10-09T16:49:52.689Z,5.72
2023-10-09T16:52:24.860Z,3.92
2023-10-09T16:54:55.051Z,6.88
2023-10-09T16:57:22.059Z,4.75
2023-10-09T16:59:50.327Z,5.18
2023-10-09T17:02:23.901Z,6.88
2023-10-09T17:04:53.969Z,2.75
2023-10-09T17:07:24.927Z,3.67
2023-10-09T17:09:51.616Z,3.50
2023-10-09T17:12:18.864Z,7.10
2023-10-09T17:14:50.334Z,5.60
2023-10-09T17:17:19.687Z,3.47
2023-10-09T17:19:49.583Z,3.92
2023-10-09T17:22:19.015Z,2.60
2023-10-09T17:24:47.928Z,3.38
2023-10-09T17:27:19.052Z,1.98
2023-10-09T17:29:47.709Z,4.65
2023-10-09T17:32:19.737Z,3.83
2023-10-09T17:34:46.609Z,3.55
2023-10-09T17:37:13.467Z,4.18
2023-10-09T17:39:40.245Z,6.15
2023-10-09T17:42:09.408Z,5.65
2023-10-09T17:44:36.277Z,4.40
2023-10-09T17:47:03.038Z,4.13
2023-10-09T17:49:31.800Z,4.15
2023-10-09T17:52:01.236Z,3.60
2023-10-09T17:54:29.630Z,2.72
2023-10-09T17:56:58.220Z,4.38
2023-10-09T17:59:25.372Z,4.28
2023-10-09T18:01:52.279Z,6.75
2023-10-09T18:04:19.769Z,3.78
2023-10-09T18:06:49.216Z,3.33
2023-10-09T18:09:18.969Z,3.88
2023-10-09T18:11:47.085Z,4.10
2023-10-09T18:14:15.291Z,3.25
2023-10-09T18:16:43.270Z,3.78
2023-10-09T18:19:13.120Z,3.67
2023-10-09T18:21:42.583Z,3.67
2023-10-09T18:24:15.466Z,4.85
2023-10-09T18:29:13.488Z,4.13
2023-10-09T18:31:42.173Z,4.93
2023-10-09T18:34:09.444Z,4.47
2023-10-09T18:36:38.369Z,5.18
2023-10-09T18:39:05.652Z,2.90
2023-10-09T18:41:32.381Z,4.20
2023-10-09T18:44:02.029Z,6.38
2023-10-09T18:46:28.800Z,3.58
2023-10-09T18:49:01.705Z,4.55
2023-10-09T18:51:30.719Z,2.05
2023-10-09T18:54:01.662Z,4.80
2023-10-09T18:56:29.678Z,3.85
2023-10-09T18:58:57.853Z,5.53
2023-10-09T19:01:24.754Z,4.28
2023-10-09T19:03:51.840Z,5.40
2023-10-09T19:06:19.657Z,4.05
2023-10-09T19:08:49.171Z,5.57
2023-10-09T19:11:17.152Z,4.80
2023-10-09T19:13:44.711Z,4.97
2023-10-09T19:16:13.011Z,4.40
2023-10-09T19:18:40.194Z,4.88
2023-10-09T19:21:10.446Z,3.95
2023-10-09T19:23:41.801Z,4.72
2023-10-09T19:26:10.090Z,4.85
2023-10-09T19:28:39.148Z,4.00
2023-10-09T19:31:07.317Z,7.38
2023-10-09T19:33:38.916Z,5.70
2023-10-09T19:36:12.788Z,6.68
2023-10-09T19:38:40.115Z,7.68
2023-10-09T19:41:07.766Z,8.75
2023-10-09T19:43:35.390Z,5.85
2023-10-09T19:46:08.796Z,4.18
2023-10-09T19:48:36.033Z,5.97
2023-10-09T19:51:08.034Z,4.75
2023-10-09T19:53:37.784Z,5.85
2023-10-09T19:56:06.744Z,6.25
2023-10-09T19:58:33.547Z,5.65
2023-10-09T20:01:00.237Z,5.40
2023-10-09T20:03:29.227Z,4.18
2023-10-09T20:05:56.076Z,5.78
2023-10-09T20:08:22.826Z,5.70
2023-10-09T20:10:50.740Z,7.72
2023-10-09T20:13:17.575Z,6.00
2023-10-09T20:15:48.032Z,5.97
2023-10-09T20:18:14.717Z,5.65
2023-10-09T20:20:46.962Z,4.03
2023-10-09T20:23:21.977Z,4.50
2023-10-09T20:25:59.890Z,6.30
2023-10-09T20:28:27.186Z,3.92
2023-10-09T20:30:54.311Z,4.22
2023-10-09T20:33:23.891Z,5.40
2023-10-09T20:35:52.502Z,4.30
2023-10-09T20:38:19.254Z,5.65
2023-10-09T20:40:46.084Z,5.82
2023-10-09T20:43:12.934Z,6.63
2023-10-09T20:45:40.654Z,6.13
2023-10-09T20:48:07.421Z,5.60
2023-10-09T20:50:34.195Z,4.20
2023-10-09T20:53:01.014Z,5.88
2023-10-09T20:55:27.763Z,3.88
2023-10-09T20:57:57.934Z,5.97
2023-10-09T21:00:26.945Z,4.20
2023-10-09T21:02:55.701Z,5.07
2023-10-09T21:05:26.736Z,4.15
2023-10-09T21:07:54.424Z,4.93
2023-10-09T21:10:22.379Z,4.15
2023-10-09T21:12:50.634Z,3.22
2023-10-09T21:15:18.972Z,4.55
2023-10-09T21:17:46.614Z,4.13
2023-10-09T21:20:18.060Z,3.90
2023-10-09T21:22:51.491Z,4.05
2023-10-09T21:25:21.772Z,3.35
2023-10-09T21:27:49.349Z,3.78
2023-10-09T21:30:16.950Z,3.38
2023-10-09T21:32:44.693Z,3.05
2023-10-09T21:35:19.899Z,4.75
2023-10-09T21:37:54.897Z,3.08
2023-10-09T21:40:29.859Z,3.42
2023-10-09T21:42:58.319Z,3.45
2023-10-09T21:45:26.632Z,3.28
2023-10-09T21:47:57.333Z,2.35
2023-10-09T21:50:26.462Z,3.72
2023-10-09T21:52:58.289Z,3.92
2023-10-09T21:55:26.872Z,4.93
2023-10-09T21:57:56.427Z,3.92
2023-10-09T22:00:32.489Z,4.50
2023-10-09T22:03:08.855Z,3.60
2023-10-09T22:05:43.223Z,3.55
2023-10-09T22:08:11.581Z,4.38
2023-10-09T22:10:39.526Z,4.30
2023-10-09T22:13:09.390Z,3.78
2023-10-09T22:15:36.036Z,4.05
2023-10-09T22:18:10.214Z,3.13
2023-10-09T22:20:36.990Z,3.45
2023-10-09T22:23:04.430Z,3.53
2023-10-09T22:25:32.033Z,4.07
2023-10-09T22:28:04.843Z,3.45
2023-10-09T22:30:36.289Z,4.28
2023-10-09T22:33:04.457Z,2.22
2023-10-09T22:35:36.019Z,2.83
2023-10-09T22:38:10.303Z,3.30
2023-10-09T22:40:40.089Z,4.00
2023-10-09T22:43:12.045Z,2.63
2023-10-09T22:45:50.279Z,2.20
2023-10-09T22:48:18.108Z,1.95
2023-10-09T22:50:48.789Z,2.05
2023-10-09T22:53:38.916Z,2.30
2023-10-09T22:56:14.416Z,2.08
2023-10-09T22:58:52.292Z,1.73
2023-10-09T23:01:23.892Z,2.80
2023-10-09T23:04:11.031Z,3.20
2023-10-09T23:06:41.952Z,2.97
2023-10-09T23:09:18.256Z,5.40
2023-10-09T23:11:55.290Z,3.33
2023-10-09T23:14:27.264Z,5.05
2023-10-09T23:16:58.245Z,5.53
2023-10-09T23:19:45.370Z,8.70
2023-10-09T23:22:13.812Z,5.20
2023-10-09T23:24:51.388Z,4.15
2023-10-09T23:27:38.625Z,5.53
2023-10-09T23:30:25.472Z,4.47
2023-10-09T23:32:53.647Z,6.40
2023-10-09T23:35:22.133Z,3.40
2023-10-09T23:38:09.047Z,3.38
2023-10-09T23:40:42.968Z,5.75
2023-10-09T23:43:14.338Z,4.57
2023-10-09T23:45:41.950Z,4.63
2023-10-09T23:48:27.674Z,3.72
2023-10-09T23:50:57.164Z,2.13
2023-10-09T23:53:27.808Z,3.30
2023-10-09T23:55:54.933Z,2.47
2023-10-09T23:58:22.891Z,3.60
